Главная страница
METAR-TAF:

METAR-TAF

Аэропорты :

Вашингтон, Пенсильвания, США

широта: 40-08N, долгота: 080-17W, высота над уровнем моря: 361 м

Текущие метеонаблюдения

Эта сводка был подготовлена 21 минут назад, в 13:56 UTC
Ветер 13 Узел от западный-юго-западный с порывами до 21 Узел
Температура 1°C
Влажность 69%
Давление 1022 hPa
Видимость: 16.1 км
Сплошная облачность на высоте 2500 фута

METAR: KAFJ 211356Z AUTO 24013G21KT 10SM OVC025 01/M04 A3019 RMK AO2 SLP234 T00061044 FZRANO

Время: 09:17 (14:17 UTC)


TAF: отсутствует

Метеонаблюдения и прогнозы для более 4000 аэропортов (сводки METAR и TAF).

Имеющиеся станции представлены на карте желтыми и красными точками.

Чтобы увидеть название станции, наведите на нее мышь.

Затем щелкните, чтобы увидеть метеонаблюдения и метеопрогнозы.

Управление картой: чтобы увеличить масштаб, щелкните зеленые кнопки с черным крестиком; чтобы уменьшить масштаб, щелкните зеленую кнопку с тире; для просмотра соседних карт щелкайте зеленые стрелки.


METAR-TAF: